Time;durP1;ratioP1;P1;durP2;ratioP2;P2;SDS_P1;SDS_P2;PMS_P1;PMS_P2;Temp;Humidity;BMP_temperature;BMP_pressure;BME280_temperature;BME280_humidity;BME280_pressure;Samples;Min_cycle;Max_cycle;Signal;HPM_P1;HPM_P2
2021/12/20 00:01:33;;;;;;;23.33;3.25;;;;;;;2.55;91.68;100783.03;5051374;28;20027;-71
2021/12/20 00:03:59;;;;;;;22.23;3.08;;;;;;;2.52;91.67;100783.13;5050585;28;20037;-68
2021/12/20 00:06:24;;;;;;;25.02;3.83;;;;;;;2.45;91.78;100781.59;5051506;28;20527;-70
2021/12/20 00:08:49;;;;;;;19.90;3.35;;;;;;;2.43;91.22;100783.34;5045879;28;20040;-70
2021/12/20 00:11:14;;;;;;;18.88;3.17;;;;;;;2.37;91.54;100788.69;5050536;28;20746;-71
2021/12/20 00:13:40;;;;;;;20.52;3.65;;;;;;;2.34;91.39;100789.63;5050667;28;20470;-71
2021/12/20 00:16:05;;;;;;;17.50;2.20;;;;;;;2.30;91.23;100789.72;5047206;28;20034;-70
2021/12/20 00:18:30;;;;;;;15.80;3.35;;;;;;;2.28;91.20;100799.28;5005527;28;20452;-71
2021/12/20 00:20:56;;;;;;;35.97;3.95;;;;;;;2.23;90.90;100806.31;5050711;28;20025;-70
2021/12/20 00:23:21;;;;;;;22.20;3.38;;;;;;;2.19;90.27;100810.69;5050622;28;20051;-68
2021/12/20 00:25:48;;;;;;;12.35;2.20;;;;;;;2.15;90.25;100807.34;5048860;28;20490;-70
2021/12/20 00:28:16;;;;;;;19.83;3.40;;;;;;;2.14;89.61;100808.19;5050290;28;20037;-70
2021/12/20 00:30:41;;;;;;;18.67;3.10;;;;;;;2.11;89.54;100808.31;5038980;28;20025;-69
2021/12/20 00:33:07;;;;;;;14.25;2.95;;;;;;;2.08;89.74;100805.78;5044992;28;20032;-70
2021/12/20 00:35:32;;;;;;;17.42;2.67;;;;;;;2.05;89.74;100810.19;5048851;28;20032;-69
2021/12/20 00:40:41;;;;;;;17.50;2.47;;;;;;;1.94;90.15;100815.59;5047496;28;20074;-70
2021/12/20 00:43:07;;;;;;;14.38;2.53;;;;;;;1.91;90.03;100810.47;5047242;28;20029;-70
2021/12/20 00:45:35;;;;;;;19.52;2.85;;;;;;;1.85;89.98;100811.47;5050754;28;20482;-70
2021/12/20 00:48:01;;;;;;;14.45;3.30;;;;;;;1.80;90.42;100818.47;5052040;28;20021;-69
2021/12/20 00:50:27;;;;;;;10.73;2.55;;;;;;;1.75;90.61;100822.91;5033914;28;20082;-68
2021/12/20 00:52:53;;;;;;;25.80;3.33;;;;;;;1.70;90.64;100817.81;5049295;28;20055;-70
2021/12/20 00:55:21;;;;;;;14.82;2.40;;;;;;;1.68;90.65;100808.41;5050406;28;20032;-69
2021/12/20 00:57:48;;;;;;;19.40;3.15;;;;;;;1.61;90.58;100807.69;5048133;28;20637;-70
2021/12/20 01:00:16;;;;;;;19.98;3.47;;;;;;;1.61;90.52;100807.69;5048647;28;20436;-68
2021/12/20 01:02:42;;;;;;;21.52;3.38;;;;;;;1.62;90.48;100811.13;5047061;28;20118;-68
2021/12/20 01:05:07;;;;;;;18.13;2.72;;;;;;;1.58;90.50;100812.06;5030527;28;20557;-70
2021/12/20 01:07:33;;;;;;;20.45;2.55;;;;;;;1.55;90.40;100812.13;5047824;28;20044;-68
2021/12/20 01:10:02;;;;;;;19.08;3.13;;;;;;;1.52;90.29;100813.06;5022301;28;20475;-69
2021/12/20 01:12:33;;;;;;;20.08;2.50;;;;;;;1.53;89.34;100809.59;5048780;28;20021;-69
2021/12/20 01:15:00;;;;;;;13.45;2.88;;;;;;;1.49;89.83;100817.47;5046802;28;20033;-70
2021/12/20 01:17:26;;;;;;;20.83;2.83;;;;;;;1.46;89.56;100823.53;5046693;28;20033;-71
2021/12/20 01:19:51;;;;;;;12.75;2.92;;;;;;;1.45;89.16;100822.69;5048306;28;20041;-70
2021/12/20 01:22:17;;;;;;;19.42;2.85;;;;;;;1.44;89.37;100830.44;5029623;28;20036;-70
2021/12/20 01:24:42;;;;;;;17.23;3.15;;;;;;;1.39;89.58;100830.56;5031181;28;20124;-70
2021/12/20 01:27:07;;;;;;;16.63;2.25;;;;;;;1.35;89.42;100825.50;5045217;28;20020;-70
2021/12/20 01:29:33;;;;;;;22.67;2.88;;;;;;;1.29;90.08;100839.38;5049130;28;20053;-69
2021/12/20 01:31:58;;;;;;;15.93;3.03;;;;;;;1.27;89.40;100838.56;5045612;28;20617;-70
2021/12/20 01:34:23;;;;;;;22.67;2.88;;;;;;;1.19;90.36;100836.13;5048866;28;20128;-71
2021/12/20 01:36:49;;;;;;;20.88;3.67;;;;;;;1.19;90.48;100837.88;5031764;28;21312;-67
2021/12/20 01:39:14;;;;;;;18.48;3.08;;;;;;;1.15;90.30;100839.66;5047362;28;20020;-67
2021/12/20 01:41:41;;;;;;;13.23;2.85;;;;;;;1.08;90.39;100835.47;5047149;28;20036;-68
2021/12/20 01:44:07;;;;;;;15.02;2.50;;;;;;;1.07;90.35;100849.25;5047672;28;20069;-69
2021/12/20 01:46:33;;;;;;;20.40;3.83;;;;;;;1.00;90.75;100842.50;5048734;28;20033;-68
2021/12/20 01:49:00;;;;;;;16.80;2.83;;;;;;;0.96;90.53;100840.84;5042939;28;20044;-70
2021/12/20 01:51:49;;;;;;;25.83;3.38;;;;;;;0.93;90.98;100849.53;5035100;28;20049;-69
2021/12/20 01:54:14;;;;;;;16.33;2.65;;;;;;;0.91;91.23;100851.28;5042952;28;20174;-70
2021/12/20 01:56:42;;;;;;;18.55;4.78;;;;;;;0.87;90.75;100859.13;5028982;28;20499;-70
2021/12/20 01:59:09;;;;;;;14.70;2.67;;;;;;;0.85;91.03;100851.38;5031177;28;20520;-68
2021/12/20 02:01:35;;;;;;;12.57;2.85;;;;;;;0.83;91.00;100850.56;5048446;28;20029;-70
2021/12/20 02:04:07;;;;;;;24.30;3.60;;;;;;;0.83;90.95;100839.41;5029751;28;20040;-69
2021/12/20 02:06:35;;;;;;;24.02;3.63;;;;;;;0.84;90.47;100844.53;5044461;28;20117;-70
2021/12/20 02:09:13;;;;;;;21.00;3.40;;;;;;;0.78;90.81;100841.19;5042567;28;20046;-71
2021/12/20 02:11:40;;;;;;;13.30;3.35;;;;;;;0.76;90.85;100850.72;5038601;28;20049;-70
2021/12/20 02:14:08;;;;;;;12.80;3.00;;;;;;;0.72;91.08;100849.91;5047899;28;20043;-69
2021/12/20 02:16:34;;;;;;;20.77;3.75;;;;;;;0.71;90.50;100849.06;5031958;28;20099;-69
2021/12/20 02:19:08;;;;;;;20.80;3.50;;;;;;;0.66;90.67;100850.00;5045632;28;20482;-71
2021/12/20 02:21:34;;;;;;;18.25;3.63;;;;;;;0.65;90.39;100843.16;5047404;28;20422;-68
2021/12/20 02:23:59;;;;;;;14.65;3.67;;;;;;;0.61;90.53;100846.66;5029264;28;20045;-70
2021/12/20 02:26:25;;;;;;;19.02;3.90;;;;;;;0.59;90.51;100849.25;5040780;28;20033;-68
2021/12/20 02:28:53;;;;;;;15.82;3.30;;;;;;;0.59;90.12;100850.97;5027650;28;20048;-69
2021/12/20 02:39:25;;;;;;;15.57;3.33;;;;;;;0.54;89.67;100856.22;5048546;28;20123;-69
2021/12/20 02:41:51;;;;;;;16.08;3.25;;;;;;;0.52;90.02;100854.53;5046367;28;20094;-70
2021/12/20 02:44:18;;;;;;;18.63;3.22;;;;;;;0.48;89.33;100849.44;5040919;28;20514;-69
2021/12/20 02:49:23;;;;;;;13.20;2.58;;;;;;;0.50;88.54;100852.00;5047331;28;20033;-70
2021/12/20 02:51:51;;;;;;;17.80;2.58;;;;;;;0.47;88.93;100850.31;5010188;28;20125;-70
2021/12/20 02:54:19;;;;;;;15.63;2.60;;;;;;;0.44;89.14;100854.66;5048293;28;20479;-69
2021/12/20 02:56:46;;;;;;;13.27;2.67;;;;;;;0.39;89.04;100851.31;5028228;28;20039;-70
2021/12/20 02:59:12;;;;;;;8.90;2.03;;;;;;;0.39;88.84;100854.75;5048110;28;20079;-69
2021/12/20 03:01:41;;;;;;;24.42;3.47;;;;;;;0.41;88.74;100857.31;5047085;28;20115;-71
2021/12/20 03:04:08;;;;;;;14.35;3.00;;;;;;;0.35;88.85;100853.09;5049706;28;20083;-68
2021/12/20 03:06:51;;;;;;;17.65;3.47;;;;;;;0.33;88.90;100848.81;5043621;28;20090;-69
2021/12/20 03:09:21;;;;;;;14.18;2.33;;;;;;;0.32;89.19;100844.56;5041013;28;20008;-70
2021/12/20 03:11:48;;;;;;;21.45;4.15;;;;;;;0.28;89.38;100860.97;5042265;28;20029;-71
2021/12/20 03:14:20;;;;;;;18.17;2.85;;;;;;;0.23;89.35;100867.03;5051693;28;20032;-68
2021/12/20 03:16:46;;;;;;;20.05;3.40;;;;;;;0.19;89.60;100870.53;5050015;28;20087;-69
2021/12/20 03:19:12;;;;;;;15.98;3.47;;;;;;;0.22;89.37;100872.19;5051179;28;20032;-70
2021/12/20 03:21:37;;;;;;;12.82;2.72;;;;;;;0.17;89.55;100864.53;5049854;28;20024;-69
2021/12/20 03:24:04;;;;;;;15.25;3.08;;;;;;;0.15;89.51;100871.47;5051851;28;20017;-68
2021/12/20 03:26:29;;;;;;;15.68;2.30;;;;;;;0.18;89.58;100875.69;5049752;28;20575;-70
2021/12/20 03:28:55;;;;;;;20.73;3.08;;;;;;;0.17;89.51;100881.75;5017733;28;20029;-68
2021/12/20 03:31:23;;;;;;;17.35;2.40;;;;;;;0.18;89.66;100873.97;5071251;22;20072;-87
2021/12/20 03:34:20;;;;;;;28.60;3.13;;;;;;;0.14;89.55;100874.03;5051848;28;20122;-86
2021/12/20 03:36:52;;;;;;;8.32;2.20;;;;;;;0.10;89.29;100880.97;5041771;28;20055;-87
2021/12/20 03:39:30;;;;;;;20.17;3.20;;;;;;;0.13;89.50;100891.25;5048640;28;20104;-88
2021/12/20 03:42:04;;;;;;;15.45;2.90;;;;;;;0.15;88.99;100876.63;5043897;28;20477;-87
2021/12/20 03:44:43;;;;;;;14.32;3.22;;;;;;;0.13;88.79;100865.47;5042954;28;20063;-88
2021/12/20 03:47:08;;;;;;;10.90;2.72;;;;;;;0.11;89.36;100872.38;5043038;28;20037;-88
2021/12/20 03:49:42;;;;;;;13.50;2.78;;;;;;;0.09;89.14;100874.13;5044113;28;20036;-86
2021/12/20 03:52:11;;;;;;;14.10;2.42;;;;;;;0.09;89.13;100873.28;5044469;28;20124;-87
2021/12/20 03:54:39;;;;;;;18.83;2.30;;;;;;;0.09;89.10;100873.28;5044177;28;20032;-87
2021/12/20 03:57:08;;;;;;;15.07;1.97;;;;;;;0.08;89.45;100869.84;5038181;28;20420;-88
2021/12/20 03:59:51;;;;;;;;;;;;;;;;;;;;;
2021/12/20 04:02:38;;;;;;;15.27;2.67;;;;;;;0.06;89.60;100868.16;5053042;28;20036;-88
2021/12/20 04:05:18;;;;;;;10.93;2.40;;;;;;;-0.02;89.53;100879.44;5044404;28;20159;-87
2021/12/20 04:07:44;;;;;;;23.60;2.65;;;;;;;-0.02;89.58;100891.47;5051459;28;20052;-87
2021/12/20 04:10:09;;;;;;;23.85;4.50;;;;;;;-0.03;89.37;100892.34;5048247;28;20157;-87
2021/12/20 04:12:37;;;;;;;14.00;2.33;;;;;;;-0.06;89.57;100887.22;5051839;28;20029;-86
2021/12/20 04:15:08;;;;;;;12.85;2.30;;;;;;;-0.11;90.08;100877.00;5052835;28;20071;-87
2021/12/20 04:17:35;;;;;;;10.15;3.10;;;;;;;-0.10;89.86;100883.84;5053182;28;20060;-86
2021/12/20 04:20:04;;;;;;;12.82;2.20;;;;;;;-0.10;89.84;100886.41;5034398;28;20033;-86
2021/12/20 04:22:39;;;;;;;14.07;3.43;;;;;;;-0.11;89.95;100896.72;5029808;28;20049;-87
2021/12/20 04:25:08;;;;;;;15.52;2.30;;;;;;;-0.12;89.64;100884.72;5037711;28;20278;-87
2021/12/20 04:27:36;;;;;;;15.50;3.22;;;;;;;-0.17;89.77;100886.53;5041092;28;20037;-87
2021/12/20 04:30:30;;;;;;;17.35;2.92;;;;;;;-0.21;90.30;100888.28;5054254;28;20033;-87
2021/12/20 04:33:19;;;;;;;23.10;3.05;;;;;;;-0.23;90.25;100899.47;5035263;28;20061;-87
2021/12/20 04:35:50;;;;;;;12.57;2.50;;;;;;;-0.29;90.14;100903.00;5032377;28;20123;-84
2021/12/20 04:38:16;;;;;;;19.65;2.38;;;;;;;-0.33;90.38;100896.19;5051339;28;20090;-87
2021/12/20 04:40:48;;;;;;;19.52;2.65;;;;;;;-0.31;90.79;100900.41;5043232;28;20037;-87
2021/12/20 04:43:16;;;;;;;17.00;2.65;;;;;;;-0.34;90.72;100908.19;5046814;28;20103;-87
2021/12/20 04:45:44;;;;;;;10.40;2.70;;;;;;;-0.36;90.71;100903.94;5052784;28;20178;-86
2021/12/20 04:48:10;;;;;;;15.40;2.03;;;;;;;-0.40;90.87;100910.84;5052421;28;20017;-84
2021/12/20 04:50:45;;;;;;;17.23;3.25;;;;;;;-0.42;91.22;100920.31;5052478;28;20797;-85
2021/12/20 04:53:16;;;;;;;13.07;1.75;;;;;;;-0.41;90.71;100921.16;5046982;28;20056;-86
2021/12/20 04:56:02;;;;;;;;;;;;;;;;;;;;;
2021/12/20 04:58:39;;;;;;;15.05;2.63;;;;;;;-0.44;91.32;100905.75;5053452;28;20033;-86
2021/12/20 05:01:22;;;;;;;12.23;2.17;;;;;;;-0.47;91.24;100911.78;5040006;28;20174;-87
2021/12/20 05:04:11;;;;;;;14.85;2.28;;;;;;;-0.46;91.04;100910.91;5053236;28;20112;-87
2021/12/20 05:10:34;;;;;;;15.50;2.15;;;;;;;-0.43;90.92;100910.03;5012956;28;20393;-87
2021/12/20 05:13:49;;;;;;;16.95;2.95;;;;;;;-0.41;90.66;100918.59;5028182;28;20048;-87
2021/12/20 05:16:15;;;;;;;13.45;2.60;;;;;;;-0.41;90.63;100929.72;5053727;28;20040;-86
2021/12/20 05:18:41;;;;;;;12.43;2.08;;;;;;;-0.41;90.41;100916.84;5044173;28;20484;-87
2021/12/20 05:21:29;;;;;;;;;;;;;;;;;;;;;
2021/12/20 05:24:00;;;;;;;17.13;2.53;;;;;;;-0.43;90.61;100921.19;5052226;28;20732;-86
2021/12/20 05:26:34;;;;;;;14.90;2.15;;;;;;;-0.45;90.42;100925.50;5050576;28;20037;-88
2021/12/20 05:29:06;;;;;;;21.33;2.78;;;;;;;-0.46;90.64;100925.53;5051927;28;20029;-87
2021/12/20 05:31:42;;;;;;;13.70;2.17;;;;;;;-0.54;90.68;100928.19;5044010;28;20029;-87
2021/12/20 05:34:14;;;;;;;14.25;2.20;;;;;;;-0.54;91.09;100936.75;5049044;28;20070;-85
2021/12/20 05:36:39;;;;;;;13.82;2.30;;;;;;;-0.54;90.72;100929.03;5033845;28;20095;-88
2021/12/20 05:39:13;;;;;;;10.77;1.98;;;;;;;-0.50;90.73;100932.44;5048066;28;20135;-87
2021/12/20 05:41:46;;;;;;;11.32;2.05;;;;;;;-0.51;90.75;100941.03;5027528;28;20056;-86
2021/12/20 05:44:17;;;;;;;18.17;2.33;;;;;;;-0.50;90.56;100945.31;5041066;28;20033;-87
2021/12/20 05:46:42;;;;;;;20.20;2.30;;;;;;;-0.53;90.78;100943.59;5041932;28;20052;-84
2021/12/20 05:49:13;;;;;;;14.82;2.55;;;;;;;-0.64;91.05;100947.16;5053210;28;20047;-84
2021/12/20 05:51:50;;;;;;;11.85;2.45;;;;;;;-0.67;91.55;100947.19;5072037;28;20570;-88
2021/12/20 05:54:23;;;;;;;6.07;2.00;;;;;;;-0.67;91.69;100948.03;5052823;28;20036;-86
2021/12/20 05:56:52;;;;;;;15.30;2.88;;;;;;;-0.71;91.73;100960.97;5050541;28;20045;-84
2021/12/20 05:59:17;;;;;;;12.03;2.93;;;;;;;-0.75;92.06;100955.84;5050497;28;20099;-86
2021/12/20 06:01:43;;;;;;;15.52;2.63;;;;;;;-0.76;92.70;100956.72;5049764;28;20287;-86
2021/12/20 06:04:08;;;;;;;16.88;2.50;;;;;;;-0.71;92.20;100951.53;5051847;28;20167;-87
2021/12/20 06:06:34;;;;;;;15.15;2.42;;;;;;;-0.68;92.23;100966.09;5051308;28;20522;-85
2021/12/20 06:09:00;;;;;;;11.90;2.25;;;;;;;-0.66;92.43;100966.94;5051901;28;20406;-86
2021/12/20 06:11:25;;;;;;;11.90;2.72;;;;;;;-0.66;92.23;100970.38;5048036;28;20486;-86
2021/12/20 06:13:52;;;;;;;17.42;2.47;;;;;;;-0.66;92.26;100972.94;5051687;28;20393;-86
2021/12/20 06:16:17;;;;;;;11.35;2.00;;;;;;;-0.66;92.10;100977.25;5050876;28;20493;-87
2021/12/20 06:19:13;;;;;;;;;;;;;;;;;;;;;
2021/12/20 06:21:41;;;;;;;17.23;2.53;;;;;;;-0.68;92.51;100976.41;5042084;28;20020;-86
2021/12/20 06:24:09;;;;;;;20.15;2.83;;;;;;;-0.68;92.16;100966.94;5051445;28;20431;-85
2021/12/20 06:26:38;;;;;;;21.17;3.85;;;;;;;-0.71;92.63;100969.56;5044898;28;20772;-83
2021/12/20 06:29:03;;;;;;;15.38;3.13;;;;;;;-0.68;92.63;100976.41;5050555;28;20061;-87
2021/12/20 06:31:29;;;;;;;9.75;2.35;;;;;;;-0.71;92.60;100972.13;5051137;28;20072;-85
2021/12/20 06:33:57;;;;;;;19.33;2.50;;;;;;;-0.74;92.75;100977.34;5066062;28;20090;-86
2021/12/20 06:36:29;;;;;;;19.38;2.75;;;;;;;-0.73;92.99;100979.88;5051410;28;20037;-87
2021/12/20 06:39:00;;;;;;;16.67;3.88;;;;;;;-0.75;92.30;100983.31;5042263;28;20067;-87
2021/12/20 06:41:25;;;;;;;24.80;3.17;;;;;;;-0.78;92.66;100989.38;5050638;28;20035;-84
2021/12/20 06:43:51;;;;;;;26.92;2.83;;;;;;;-0.78;92.57;100989.38;5051355;28;20136;-85
2021/12/20 06:46:25;;;;;;;22.00;4.15;;;;;;;-0.76;92.73;100991.94;5043591;28;20048;-86
2021/12/20 06:48:53;;;;;;;21.50;3.50;;;;;;;-0.78;92.69;100991.94;5034605;28;20116;-86
2021/12/20 06:51:29;;;;;;;17.55;2.17;;;;;;;-0.80;92.83;100995.41;5051786;28;20033;-85
2021/12/20 06:53:55;;;;;;;23.15;2.95;;;;;;;-0.79;92.69;100999.66;5052253;28;20037;-86
2021/12/20 06:56:23;;;;;;;22.65;3.10;;;;;;;-0.78;92.68;101007.41;5052153;28;20063;-86
2021/12/20 06:58:53;;;;;;;15.48;3.65;;;;;;;-0.76;92.63;101003.06;5050505;28;20035;-87
2021/12/20 07:01:21;;;;;;;23.65;3.40;;;;;;;-0.80;92.87;100997.97;5048211;28;20032;-87
2021/12/20 07:04:05;;;;;;;;;;;;;;;;;;;;;
2021/12/20 07:06:31;;;;;;;19.88;3.20;;;;;;;-0.75;92.18;100996.19;5053965;28;20033;-84
2021/12/20 07:09:02;;;;;;;17.45;2.85;;;;;;;-0.76;92.37;100995.34;5050247;28;20180;-87
2021/12/20 07:11:30;;;;;;;18.95;3.33;;;;;;;-0.82;92.58;100995.38;5046518;28;20061;-87
2021/12/20 07:13:58;;;;;;;15.38;2.40;;;;;;;-0.85;92.46;100990.28;5049653;28;20041;-87
2021/12/20 07:16:23;;;;;;;21.85;3.13;;;;;;;-0.84;92.38;100994.56;5042909;28;20618;-85
2021/12/20 07:18:52;;;;;;;22.45;4.10;;;;;;;-0.82;92.55;100994.53;5049182;28;20041;-86
2021/12/20 07:21:18;;;;;;;11.88;2.90;;;;;;;-0.82;92.28;100997.97;5050945;28;20024;-85
2021/12/20 07:23:48;;;;;;;18.35;3.17;;;;;;;-0.81;92.42;100999.69;5049676;28;20033;-85
2021/12/20 07:26:16;;;;;;;15.43;2.33;;;;;;;-0.77;92.18;100996.22;5049003;28;20060;-87
2021/12/20 07:28:47;;;;;;;12.85;2.80;;;;;;;-0.77;91.81;101001.38;5048239;28;20033;-87
2021/12/20 07:31:15;;;;;;;15.85;2.72;;;;;;;-0.74;91.63;100995.34;5049350;28;20165;-86
2021/12/20 07:33:44;;;;;;;16.63;2.63;;;;;;;-0.72;91.77;101001.31;5042755;28;20082;-87
2021/12/20 07:36:09;;;;;;;5.85;2.22;;;;;;;-0.74;91.26;101010.81;5050781;28;20097;-86
2021/12/20 07:38:41;;;;;;;12.90;3.22;;;;;;;-0.73;91.31;101003.06;5050753;28;20056;-87
2021/12/20 07:41:09;;;;;;;15.75;2.80;;;;;;;-0.70;90.98;101009.03;5049127;28;20037;-86
2021/12/20 07:43:37;;;;;;;20.73;3.28;;;;;;;-0.69;91.01;101009.03;5048806;28;20085;-85
2021/12/20 07:46:08;;;;;;;13.73;2.50;;;;;;;-0.66;91.07;101014.16;5051868;28;20104;-85
2021/12/20 07:48:37;;;;;;;16.38;2.58;;;;;;;-0.65;90.86;101013.28;5048606;28;20082;-86
2021/12/20 07:51:51;;;;;;;10.40;2.20;;;;;;;-0.64;90.35;101011.56;5062478;28;20365;-86
2021/12/20 07:54:23;;;;;;;24.67;3.83;;;;;;;-0.59;90.02;101026.09;5050964;28;20234;-88
2021/12/20 07:56:51;;;;;;;20.33;3.22;;;;;;;-0.56;90.11;101014.91;5050786;28;20643;-87
2021/12/20 07:59:29;;;;;;;22.10;2.85;;;;;;;-0.53;89.68;101013.16;5041086;28;20033;-85
2021/12/20 08:01:57;;;;;;;13.35;2.92;;;;;;;-0.50;89.51;101030.31;5054047;28;20057;-88
2021/12/20 08:04:25;;;;;;;23.02;4.30;;;;;;;-0.49;89.40;101019.97;5054716;28;20049;-87
2021/12/20 08:06:50;;;;;;;16.02;3.15;;;;;;;-0.41;89.42;101025.06;5052743;28;20096;-88
2021/12/20 08:09:21;;;;;;;14.38;2.70;;;;;;;-0.38;88.83;101031.91;5056147;28;20033;-86
2021/12/20 08:11:47;;;;;;;21.15;3.45;;;;;;;-0.34;88.57;101031.84;5059825;28;20057;-85
2021/12/20 08:14:12;;;;;;;13.25;2.63;;;;;;;-0.32;88.85;101019.81;5070047;28;20378;-88
2021/12/20 08:16:38;;;;;;;17.83;3.13;;;;;;;-0.29;88.47;101019.78;5061386;28;20048;-88
2021/12/20 08:19:06;;;;;;;14.95;3.00;;;;;;;-0.26;88.33;101027.50;5041048;28;20481;-87
2021/12/20 08:21:31;;;;;;;18.15;3.50;;;;;;;-0.25;88.04;101024.03;5038523;28;20427;-86
2021/12/20 08:23:59;;;;;;;9.77;2.55;;;;;;;-0.19;87.97;101015.38;5053625;28;20131;-86
2021/12/20 08:26:26;;;;;;;19.48;3.63;;;;;;;-0.16;88.01;101017.94;5053367;28;20108;-88
2021/12/20 08:28:55;;;;;;;25.77;3.90;;;;;;;-0.11;87.77;101023.03;5055422;28;20501;-87
2021/12/20 08:31:20;;;;;;;11.68;2.80;;;;;;;-0.06;87.04;101022.13;5054193;28;20041;-89
2021/12/20 08:33:46;;;;;;;8.55;2.00;;;;;;;-0.02;87.40;101025.50;5055310;28;20032;-86
2021/12/20 08:36:12;;;;;;;24.05;3.35;;;;;;;0.06;86.77;101028.00;5056541;28;20017;-87
2021/12/20 08:38:39;;;;;;;16.20;2.63;;;;;;;0.09;86.86;101023.66;5052585;28;20037;-89
2021/12/20 08:41:05;;;;;;;10.55;2.33;;;;;;;0.14;86.05;101032.19;5053312;28;20044;-88
2021/12/20 08:43:33;;;;;;;15.63;3.03;;;;;;;0.19;85.76;101033.00;5054572;28;20143;-87
2021/12/20 08:46:02;;;;;;;16.13;2.70;;;;;;;0.23;85.57;101039.81;5054851;28;20085;-86
2021/12/20 08:48:31;;;;;;;21.40;2.95;;;;;;;0.27;85.50;101038.06;5056122;28;20262;-87
2021/12/20 08:51:01;;;;;;;13.00;3.25;;;;;;;0.34;85.05;101051.75;5057026;28;20129;-87
2021/12/20 08:53:29;;;;;;;13.15;3.47;;;;;;;0.40;84.75;101049.91;5056581;28;20033;-88
2021/12/20 08:55:55;;;;;;;10.60;2.30;;;;;;;0.48;84.03;101062.72;5054998;28;20068;-87
2021/12/20 08:58:21;;;;;;;20.95;3.08;;;;;;;0.54;83.78;101064.38;5048270;28;20037;-86
2021/12/20 09:00:46;;;;;;;14.77;3.03;;;;;;;0.58;82.89;101046.25;5035993;28;20068;-86
2021/12/20 09:03:12;;;;;;;20.83;3.97;;;;;;;0.62;83.00;101058.22;5042123;28;20009;-86
2021/12/20 09:05:38;;;;;;;12.43;2.72;;;;;;;0.64;82.88;101068.53;5052802;28;20040;-86
2021/12/20 09:08:06;;;;;;;13.32;2.83;;;;;;;0.69;82.58;101065.00;5055873;28;20055;-86
2021/12/20 09:10:33;;;;;;;12.88;2.65;;;;;;;0.75;82.08;101064.09;5055127;28;20174;-87
2021/12/20 09:13:00;;;;;;;11.93;2.28;;;;;;;0.79;81.65;101077.81;5047140;28;20044;-86
2021/12/20 09:15:25;;;;;;;10.07;2.50;;;;;;;0.85;81.89;101069.97;5069890;28;20051;-86
2021/12/20 09:17:53;;;;;;;10.02;2.58;;;;;;;0.88;81.28;101077.66;5062747;28;20029;-87
2021/12/20 09:20:21;;;;;;;23.15;3.33;;;;;;;0.94;81.48;101082.75;5067101;28;20041;-86
2021/12/20 09:23:03;;;;;;;29.02;3.35;;;;;;;0.96;81.42;101073.22;5065514;28;20068;-88
2021/12/20 09:25:28;;;;;;;17.30;2.35;;;;;;;1.00;81.13;101074.88;5060948;28;20104;-86
2021/12/20 09:27:56;;;;;;;20.05;2.33;;;;;;;1.04;80.76;101083.44;5057523;28;20107;-87
2021/12/20 09:30:25;;;;;;;17.35;2.97;;;;;;;1.06;81.13;101079.97;5057875;28;20118;-87
2021/12/20 09:32:51;;;;;;;12.10;2.45;;;;;;;1.13;80.21;101084.19;5043258;28;20038;-86
2021/12/20 09:35:20;;;;;;;11.95;2.33;;;;;;;1.17;79.71;101083.25;5048551;28;20065;-86
2021/12/20 09:37:51;;;;;;;;;;;;;;;1.20;79.91;101077.19;5056775;28;20068;-87
2021/12/20 09:40:18;;;;;;;10.13;2.42;;;;;;;1.24;79.23;101084.00;5062953;28;19913;-88
2021/12/20 09:42:53;;;;;;;11.88;2.03;;;;;;;1.26;79.53;101089.13;5053196;28;20017;-87
2021/12/20 09:45:23;;;;;;;12.50;2.42;;;;;;;1.31;79.21;101084.78;5059051;28;20017;-87
2021/12/20 09:47:49;;;;;;;12.32;2.42;;;;;;;1.35;79.43;101089.00;5055134;28;20444;-88
2021/12/20 09:50:17;;;;;;;14.10;2.30;;;;;;;1.36;79.03;101090.72;5055067;28;20036;-87
2021/12/20 09:52:43;;;;;;;20.13;3.15;;;;;;;1.36;78.63;101080.38;5055309;28;20497;-89
2021/12/20 09:55:11;;;;;;;8.65;2.53;;;;;;;1.38;78.47;101083.81;5056382;28;20039;-87
2021/12/20 09:57:37;;;;;;;13.20;2.53;;;;;;;1.41;78.59;101083.75;5037645;28;20507;-86
2021/12/20 10:00:08;;;;;;;20.20;3.10;;;;;;;1.47;77.84;101085.38;5050688;28;20042;-85
2021/12/20 10:02:34;;;;;;;20.98;2.88;;;;;;;1.49;78.27;101091.38;5035915;28;20025;-88
2021/12/20 10:04:59;;;;;;;14.07;2.80;;;;;;;1.53;77.98;101091.28;5055030;28;20445;-87
2021/12/20 10:07:29;;;;;;;13.52;2.88;;;;;;;1.55;77.91;101089.53;5054871;28;20489;-87
2021/12/20 10:09:54;;;;;;;10.75;2.72;;;;;;;1.58;78.09;101092.06;5057062;28;20088;-78
2021/12/20 10:12:22;;;;;;;17.98;3.67;;;;;;;1.62;77.75;101093.72;5052551;28;20027;-81
2021/12/20 10:14:56;;;;;;;13.65;2.72;;;;;;;1.66;77.92;101084.19;5063570;28;20040;-87
2021/12/20 10:17:25;;;;;;;9.82;2.15;;;;;;;1.72;77.58;101096.16;5053070;28;20037;-87
2021/12/20 10:19:51;;;;;;;15.18;3.03;;;;;;;1.75;77.43;101094.38;5053475;28;20094;-87
2021/12/20 10:22:28;;;;;;;15.65;3.45;;;;;;;1.80;77.85;101086.53;5047822;28;20033;-88
2021/12/20 10:25:02;;;;;;;12.25;3.15;;;;;;;1.83;77.05;101097.66;5050871;28;20036;-88
2021/12/20 10:27:36;;;;;;;14.63;2.63;;;;;;;1.86;77.42;101089.00;5052707;28;20025;-87
2021/12/20 10:30:26;;;;;;;9.35;2.40;;;;;;;1.91;76.45;101082.84;5045283;28;20045;-87
2021/12/20 10:33:02;;;;;;;12.18;2.72;;;;;;;1.97;77.18;101100.00;5051713;28;20545;-85
2021/12/20 10:35:36;;;;;;;18.70;3.33;;;;;;;2.02;77.19;101087.84;5053458;28;20095;-86
2021/12/20 10:38:07;;;;;;;13.35;3.03;;;;;;;2.08;76.52;101103.25;5052374;28;20109;-86
2021/12/20 10:40:34;;;;;;;12.80;2.38;;;;;;;2.09;76.27;101092.00;5049658;28;20036;-87
2021/12/20 10:43:05;;;;;;;20.15;2.38;;;;;;;2.13;75.82;101100.56;5046792;28;20062;-87
2021/12/20 10:45:31;;;;;;;10.18;2.65;;;;;;;2.14;76.36;101102.25;5060158;28;20497;-88
2021/12/20 10:48:19;;;;;;;10.93;2.50;;;;;;;2.19;76.37;101105.63;5050485;28;20115;-86
2021/12/20 10:50:45;;;;;;;11.18;2.83;;;;;;;2.18;75.76;101103.91;5052511;28;20124;-86
2021/12/20 10:53:24;;;;;;;9.93;2.00;;;;;;;2.17;76.35;101091.88;5049533;28;20519;-87
2021/12/20 10:55:51;;;;;;;17.85;2.60;;;;;;;2.24;76.70;101093.44;5049910;28;20499;-86
2021/12/20 10:58:29;;;;;;;13.63;2.83;;;;;;;2.28;76.37;101089.06;5051333;28;20047;-88
2021/12/20 11:01:01;;;;;;;12.68;2.40;;;;;;;2.35;76.74;101085.47;5047286;28;20048;-87
2021/12/20 11:03:28;;;;;;;21.90;2.85;;;;;;;2.42;76.08;101089.66;5053027;28;20051;-88
2021/12/20 11:09:09;;;;;;;9.90;2.45;;;;;;;2.49;75.87;101090.38;5051415;28;20493;-87
2021/12/20 11:11:40;;;;;;;15.05;2.08;;;;;;;2.50;75.70;101100.69;5046233;28;20124;-88
2021/12/20 11:14:32;;;;;;;10.13;2.63;;;;;;;2.54;75.71;101096.31;5051635;28;20040;-87
2021/12/20 11:17:04;;;;;;;12.52;3.00;;;;;;;2.60;76.33;101097.03;5051321;28;20047;-87
2021/12/20 11:19:34;;;;;;;8.73;2.22;;;;;;;2.58;75.51;101092.75;5051008;28;20076;-88
2021/12/20 11:22:07;;;;;;;9.82;2.42;;;;;;;2.55;75.23;101085.91;5049875;28;20316;-87
2021/12/20 11:24:55;;;;;;;12.65;2.17;;;;;;;2.54;75.58;101091.97;5020988;28;20093;-87
2021/12/20 11:27:32;;;;;;;7.53;1.92;;;;;;;2.53;75.79;101092.88;5051157;28;20029;-87
2021/12/20 11:30:01;;;;;;;14.57;2.38;;;;;;;2.57;76.04;101096.25;5046816;28;20063;-87
2021/12/20 11:32:30;;;;;;;12.20;3.00;;;;;;;2.55;76.02;101088.50;5059132;28;20060;-88
2021/12/20 11:34:55;;;;;;;11.15;2.28;;;;;;;2.54;75.93;101081.63;5049714;28;20032;-85
2021/12/20 11:37:28;;;;;;;14.68;3.00;;;;;;;2.59;76.00;101076.34;5059232;28;20320;-87
2021/12/20 11:40:08;;;;;;;11.63;2.22;;;;;;;2.58;76.15;101085.00;5037820;28;20484;-85
2021/12/20 11:42:40;;;;;;;14.98;2.67;;;;;;;2.54;76.26;101078.19;5062990;28;20071;-84
2021/12/20 11:45:08;;;;;;;12.40;2.28;;;;;;;2.58;76.40;101080.66;5057376;28;20127;-87
2021/12/20 11:47:37;;;;;;;11.35;2.00;;;;;;;2.52;76.80;101080.81;5032222;28;20044;-87
2021/12/20 11:50:08;;;;;;;11.30;1.90;;;;;;;2.57;76.52;101072.94;5053564;28;20461;-83
2021/12/20 11:52:40;;;;;;;12.82;2.28;;;;;;;2.58;76.45;101072.06;5054793;28;20041;-86
2021/12/20 11:55:28;;;;;;;12.60;2.38;;;;;;;2.61;76.78;101084.94;5059596;28;20474;-87
2021/12/20 11:58:14;;;;;;;9.95;3.05;;;;;;;2.57;77.21;101085.88;5074615;28;20025;-85
2021/12/20 12:01:25;;;;;;;11.52;2.70;;;;;;;2.56;76.94;101085.03;5050723;28;20353;-84
2021/12/20 12:04:14;;;;;;;14.63;2.65;;;;;;;2.56;77.32;101073.81;5034761;28;20042;-89